CheckWX is a tool to help pilots better visualize weather data.  It is not intended as a substitute for an official pre-flight weather briefing.

07:27:15 UTC

KRAS METAR
Mustang Beach Airport
Port Aransas, Texas, USA
Current

32 mins ago

KRAS 260655Z AUTO 13017G22KT 10SM BKN015 BKN025 27/24 A3000 RMK AO2 T02680237
Observed
May-26 @ 06:55 UTC
Wind
  • 130° at 17 KTS
  • Gusting to 22 KTS
Visibility
10 SM
Flight Rules
MVFR
Cloud Levels
  • Broken at 1,500' AGL
  • Broken at 2,500' AGL
Temperature
27°C / 81°F
Dewpoint
24°C / 75°F
Heat Index
31°C / 87°F
Humidity
84%
Altimeter
30" Hg
Pressure
1015.92 hPa
Previous

52 mins ago

KRAS 260635Z AUTO 14016G20KT 10SM BKN015 BKN023 BKN038 27/24 A3000 RMK AO2 T02690238
Observed
May-26 @ 06:35 UTC
Wind
  • 140° at 16 KTS
  • Gusting to 20 KTS
Visibility
10 SM
Flight Rules
MVFR
Cloud Levels
  • Broken at 1,500' AGL
  • Broken at 2,300' AGL
  • Broken at 3,800' AGL
Temperature
27°C / 81°F
Dewpoint
24°C / 75°F
Heat Index
31°C / 87°F
Humidity
84%
Altimeter
30" Hg
Pressure
1015.92 hPa
Previous

1 hour ago

KRAS 260615Z AUTO 13015G20KT 10SM BKN015 BKN021 BKN038 27/24 A3001 RMK AO2 T02700239
Observed
May-26 @ 06:15 UTC
Wind
  • 130° at 15 KTS
  • Gusting to 20 KTS
Visibility
10 SM
Flight Rules
MVFR
Cloud Levels
  • Broken at 1,500' AGL
  • Broken at 2,100' AGL
  • Broken at 3,800' AGL
Temperature
27°C / 81°F
Dewpoint
24°C / 75°F
Heat Index
31°C / 87°F
Humidity
84%
Altimeter
30.01" Hg
Pressure
1016.22 hPa